Time;durP1;ratioP1;P1;durP2;ratioP2;P2;SDS_P1;SDS_P2;PMS_P1;PMS_P2;Temp;Humidity;BMP_temperature;BMP_pressure;BME280_temperature;BME280_humidity;BME280_pressure;Samples;Min_cycle;Max_cycle;Signal;HPM_P1;HPM_P2
2022/12/13 00:02:06;;;;;;;28.47;13.33;;;;;;;;;;5031462;28;20202;-74
2022/12/13 00:04:31;;;;;;;20.73;12.23;;;;;;;;;;5032082;28;20213;-74
2022/12/13 00:06:56;;;;;;;25.30;12.53;;;;;;;;;;5035262;28;20187;-74
2022/12/13 00:09:21;;;;;;;25.23;13.53;;;;;;;;;;5034522;28;20187;-73
2022/12/13 00:11:47;;;;;;;21.77;12.73;;;;;;;;;;5028555;28;20177;-74
2022/12/13 00:14:12;;;;;;;26.00;12.30;;;;;;;;;;5033296;28;20175;-74
2022/12/13 00:16:38;;;;;;;24.50;12.83;;;;;;;;;;5034923;28;20174;-74
2022/12/13 00:19:03;;;;;;;22.90;13.50;;;;;;;;;;5034665;28;20228;-74
2022/12/13 00:21:29;;;;;;;26.87;13.10;;;;;;;;;;5031017;28;20209;-74
2022/12/13 00:23:55;;;;;;;24.90;13.97;;;;;;;;;;5034340;28;20186;-74
2022/12/13 00:26:22;;;;;;;24.73;12.73;;;;;;;;;;5026945;28;20214;-74
2022/12/13 00:28:50;;;;;;;21.93;12.67;;;;;;;;;;5027564;28;20178;-74
2022/12/13 00:31:15;;;;;;;24.97;13.37;;;;;;;;;;5029551;28;20332;-74
2022/12/13 00:33:40;;;;;;;25.77;13.43;;;;;;;;;;5029597;28;20699;-74
2022/12/13 00:36:06;;;;;;;30.87;13.47;;;;;;;;;;5030398;28;20186;-74
2022/12/13 00:38:32;;;;;;;27.70;13.87;;;;;;;;;;5030181;28;20178;-73
2022/12/13 00:40:57;;;;;;;35.73;13.87;;;;;;;;;;5030588;28;20187;-74
2022/12/13 00:43:22;;;;;;;25.27;13.07;;;;;;;;;;5030126;28;20200;-74
2022/12/13 00:45:47;;;;;;;27.93;12.93;;;;;;;;;;5030197;28;20256;-74
2022/12/13 00:48:13;;;;;;;29.93;13.37;;;;;;;;;;5031415;28;20228;-74
2022/12/13 00:50:38;;;;;;;31.03;14.43;;;;;;;;;;5031079;28;20227;-73
2022/12/13 00:53:04;;;;;;;22.87;13.00;;;;;;;;;;5031048;28;20561;-74
2022/12/13 00:55:29;;;;;;;27.17;13.73;;;;;;;;;;5021873;28;20233;-74
2022/12/13 00:57:55;;;;;;;26.47;12.50;;;;;;;;;;5030550;28;20201;-73
2022/12/13 01:00:20;;;;;;;26.33;12.30;;;;;;;;;;5031185;28;20188;-73
2022/12/13 01:02:45;;;;;;;19.67;12.60;;;;;;;;;;5030647;28;20225;-74
2022/12/13 01:05:11;;;;;;;20.07;12.53;;;;;;;;;;5031146;28;20612;-74
2022/12/13 01:07:37;;;;;;;23.97;12.70;;;;;;;;;;5022715;28;20175;-74
2022/12/13 01:10:03;;;;;;;22.87;13.00;;;;;;;;;;5029804;28;20182;-74
2022/12/13 01:12:28;;;;;;;28.63;13.23;;;;;;;;;;5021461;28;20179;-73
2022/12/13 01:14:53;;;;;;;28.30;13.27;;;;;;;;;;5030279;28;20690;-73
2022/12/13 01:17:19;;;;;;;22.73;13.10;;;;;;;;;;5031043;28;20185;-74
2022/12/13 01:19:44;;;;;;;24.43;12.40;;;;;;;;;;5029865;28;20217;-73
2022/12/13 01:22:10;;;;;;;26.30;12.43;;;;;;;;;;5030140;28;20205;-74
2022/12/13 01:24:35;;;;;;;21.40;11.47;;;;;;;;;;5031260;28;20235;-74
2022/12/13 01:27:01;;;;;;;25.23;12.60;;;;;;;;;;5030793;28;20208;-74
2022/12/13 01:29:26;;;;;;;24.87;13.07;;;;;;;;;;5021829;28;20256;-74
2022/12/13 01:31:52;;;;;;;25.27;12.80;;;;;;;;;;5027924;28;20177;-73
2022/12/13 01:34:18;;;;;;;27.00;11.93;;;;;;;;;;5030789;28;20240;-73
2022/12/13 01:36:44;;;;;;;21.83;11.77;;;;;;;;;;5030584;28;20637;-74
2022/12/13 01:39:11;;;;;;;27.27;13.27;;;;;;;;;;5034074;28;20261;-74
2022/12/13 01:41:36;;;;;;;28.60;12.43;;;;;;;;;;5029127;28;20190;-74
2022/12/13 01:44:02;;;;;;;21.03;12.07;;;;;;;;;;5033779;28;20220;-73
2022/12/13 01:46:29;;;;;;;23.03;12.63;;;;;;;;;;5036455;28;20198;-74
2022/12/13 01:48:57;;;;;;;20.47;11.80;;;;;;;;;;5034704;28;20166;-73
2022/12/13 01:51:25;;;;;;;28.10;13.47;;;;;;;;;;5030752;28;20185;-74
2022/12/13 01:53:51;;;;;;;22.80;12.70;;;;;;;;;;5034803;28;20225;-74
2022/12/13 01:56:22;;;;;;;25.07;12.13;;;;;;;;;;5034362;28;20198;-74
2022/12/13 01:58:48;;;;;;;26.63;12.50;;;;;;;;;;5027316;28;20170;-73
2022/12/13 02:01:13;;;;;;;22.07;11.20;;;;;;;;;;5034033;28;20202;-74
2022/12/13 02:03:39;;;;;;;24.07;12.10;;;;;;;;;;5033702;28;20591;-74
2022/12/13 02:06:06;;;;;;;23.10;11.80;;;;;;;;;;5034615;28;20571;-74
2022/12/13 02:08:33;;;;;;;23.37;12.53;;;;;;;;;;5034707;28;20182;-74
2022/12/13 02:10:59;;;;;;;27.03;13.07;;;;;;;;;;5032239;28;20178;-73
2022/12/13 02:13:24;;;;;;;23.43;13.43;;;;;;;;;;5037016;28;20609;-74
2022/12/13 02:15:59;;;;;;;25.03;12.73;;;;;;;;;;5041085;28;20190;-74
2022/12/13 02:18:24;;;;;;;23.47;13.20;;;;;;;;;;5038508;28;20184;-74
2022/12/13 02:20:49;;;;;;;24.00;12.00;;;;;;;;;;5038053;28;20167;-74
2022/12/13 02:23:24;;;;;;;29.70;14.07;;;;;;;;;;5040195;28;20207;-74
2022/12/13 02:25:52;;;;;;;21.90;11.67;;;;;;;;;;5037744;28;20208;-74
2022/12/13 02:28:44;;;;;;;21.60;12.00;;;;;;;;;;5039063;28;20184;-73
2022/12/13 02:31:15;;;;;;;22.47;11.40;;;;;;;;;;5043241;28;20186;-74
2022/12/13 02:33:43;;;;;;;29.93;12.93;;;;;;;;;;5040945;28;20197;-74
2022/12/13 02:36:18;;;;;;;23.17;12.60;;;;;;;;;;5031823;28;20193;-73
2022/12/13 02:39:02;;;;;;;22.97;11.73;;;;;;;;;;5030799;28;20197;-73
2022/12/13 02:41:36;;;;;;;24.10;11.83;;;;;;;;;;5031551;28;20214;-73
2022/12/13 02:44:10;;;;;;;24.87;12.70;;;;;;;;;;5033840;28;20210;-73
2022/12/13 02:46:39;;;;;;;23.33;13.50;;;;;;;;;;5033805;28;20212;-73
2022/12/13 02:49:05;;;;;;;22.47;12.43;;;;;;;;;;5032615;28;20590;-73
2022/12/13 02:51:31;;;;;;;24.10;13.13;;;;;;;;;;5032588;28;20201;-74
2022/12/13 02:53:57;;;;;;;22.30;12.83;;;;;;;;;;5033681;28;20619;-73
2022/12/13 02:56:22;;;;;;;24.53;12.70;;;;;;;;;;5032653;28;20256;-73
2022/12/13 02:58:48;;;;;;;23.73;13.20;;;;;;;;;;5033548;28;20168;-73
2022/12/13 03:01:31;;;;;;;23.13;12.03;;;;;;;;;;5032906;28;20638;-73
2022/12/13 03:04:05;;;;;;;24.30;12.87;;;;;;;;;;5033671;28;20291;-73
2022/12/13 03:06:55;;;;;;;19.27;11.93;;;;;;;;;;5032527;28;20683;-73
2022/12/13 03:09:24;;;;;;;27.23;13.37;;;;;;;;;;5033439;28;20620;-73
2022/12/13 03:14:55;;;;;;;27.90;13.30;;;;;;;;;;5034119;28;20427;-73
2022/12/13 03:17:21;;;;;;;26.03;13.57;;;;;;;;;;5033193;28;20235;-73
2022/12/13 03:19:46;;;;;;;22.77;12.37;;;;;;;;;;5033347;28;20179;-74
2022/12/13 03:22:12;;;;;;;25.27;13.53;;;;;;;;;;5030900;28;20213;-73
2022/12/13 03:24:37;;;;;;;22.37;12.83;;;;;;;;;;5032440;28;20229;-76
2022/12/13 03:27:03;;;;;;;26.27;13.93;;;;;;;;;;5043239;22;20692;-69
2022/12/13 03:29:28;;;;;;;24.23;13.03;;;;;;;;;;5028717;28;20265;-71
2022/12/13 03:31:53;;;;;;;30.50;13.53;;;;;;;;;;5030995;28;20186;-70
2022/12/13 03:34:19;;;;;;;26.83;14.33;;;;;;;;;;5034565;28;20185;-71
2022/12/13 03:36:44;;;;;;;27.40;14.80;;;;;;;;;;5033438;28;20229;-71
2022/12/13 03:39:09;;;;;;;27.40;13.57;;;;;;;;;;5030904;28;20239;-71
2022/12/13 03:41:34;;;;;;;24.63;13.73;;;;;;;;;;5031815;28;20451;-69
2022/12/13 03:44:03;;;;;;;28.30;14.60;;;;;;;;;;5031531;28;20225;-69
2022/12/13 03:46:29;;;;;;;28.60;13.93;;;;;;;;;;5032917;28;20190;-69
2022/12/13 03:48:54;;;;;;;22.80;12.00;;;;;;;;;;5032402;28;20189;-69
2022/12/13 03:51:19;;;;;;;21.63;13.17;;;;;;;;;;5031624;28;20661;-69
2022/12/13 03:53:44;;;;;;;26.40;14.10;;;;;;;;;;5032491;28;20205;-69
2022/12/13 03:56:09;;;;;;;23.73;12.23;;;;;;;;;;5031194;28;20195;-69
2022/12/13 03:58:35;;;;;;;25.20;13.07;;;;;;;;;;5032496;28;20205;-69
2022/12/13 04:01:00;;;;;;;28.33;13.23;;;;;;;;;;5031433;28;20652;-69
2022/12/13 04:03:26;;;;;;;27.47;13.73;;;;;;;;;;5032389;28;20202;-69
2022/12/13 04:05:51;;;;;;;26.17;12.17;;;;;;;;;;5031401;28;20205;-71
2022/12/13 04:08:16;;;;;;;30.30;12.63;;;;;;;;;;5031620;28;20170;-70
2022/12/13 04:10:41;;;;;;;27.03;13.97;;;;;;;;;;5029955;28;20182;-68
2022/12/13 04:15:50;;;;;;;21.70;13.50;;;;;;;;;;5039116;28;20576;-71
2022/12/13 04:18:16;;;;;;;25.77;13.87;;;;;;;;;;5030052;28;20171;-70
2022/12/13 04:20:41;;;;;;;27.13;12.83;;;;;;;;;;5030031;28;20314;-69
2022/12/13 04:23:06;;;;;;;24.23;13.53;;;;;;;;;;5034248;28;20282;-70
2022/12/13 04:25:32;;;;;;;25.53;13.83;;;;;;;;;;5036170;28;20998;-69
2022/12/13 04:27:57;;;;;;;23.70;12.57;;;;;;;;;;5032784;28;20182;-69
2022/12/13 04:30:22;;;;;;;26.80;13.03;;;;;;;;;;5033378;28;20601;-69
2022/12/13 04:32:47;;;;;;;29.77;14.07;;;;;;;;;;5032145;28;20178;-70
2022/12/13 04:35:12;;;;;;;24.97;12.63;;;;;;;;;;5032527;28;20209;-69
2022/12/13 04:37:38;;;;;;;23.00;12.77;;;;;;;;;;5031722;28;20277;-69
2022/12/13 04:40:03;;;;;;;25.30;12.80;;;;;;;;;;5029656;28;20214;-69
2022/12/13 04:42:30;;;;;;;23.50;12.20;;;;;;;;;;5028532;28;20229;-70
2022/12/13 04:44:55;;;;;;;24.77;12.57;;;;;;;;;;5035916;28;20237;-69
2022/12/13 04:47:20;;;;;;;22.07;12.60;;;;;;;;;;5030014;28;20190;-70
2022/12/13 04:49:46;;;;;;;26.30;14.33;;;;;;;;;;5038065;28;20171;-69
2022/12/13 04:52:11;;;;;;;24.13;13.07;;;;;;;;;;5034630;28;20192;-70
2022/12/13 04:54:37;;;;;;;27.13;12.90;;;;;;;;;;5031977;28;20191;-69
2022/12/13 04:57:03;;;;;;;25.57;12.63;;;;;;;;;;5028929;28;20279;-69
2022/12/13 04:59:29;;;;;;;26.77;12.50;;;;;;;;;;5031781;28;20226;-69
2022/12/13 05:01:54;;;;;;;24.53;12.37;;;;;;;;;;5029924;28;20225;-69
2022/12/13 05:04:19;;;;;;;28.43;13.93;;;;;;;;;;5031415;28;20186;-69
2022/12/13 05:06:44;;;;;;;32.13;14.30;;;;;;;;;;5030222;28;20198;-69
2022/12/13 05:09:09;;;;;;;30.47;13.77;;;;;;;;;;5031592;28;20628;-69
2022/12/13 05:11:35;;;;;;;33.27;14.07;;;;;;;;;;5037991;28;20206;-69
2022/12/13 05:14:00;;;;;;;25.27;13.30;;;;;;;;;;5030941;28;20690;-69
2022/12/13 05:16:25;;;;;;;28.83;13.77;;;;;;;;;;5028696;28;20198;-69
2022/12/13 05:18:50;;;;;;;29.27;13.63;;;;;;;;;;5013030;28;20656;-69
2022/12/13 05:21:15;;;;;;;30.33;15.93;;;;;;;;;;5029936;28;20182;-69
2022/12/13 05:23:41;;;;;;;27.60;13.83;;;;;;;;;;5031190;28;20206;-69
2022/12/13 05:26:06;;;;;;;27.93;13.20;;;;;;;;;;5038374;28;20256;-69
2022/12/13 05:28:32;;;;;;;27.33;13.30;;;;;;;;;;5031092;28;20186;-69
2022/12/13 05:30:58;;;;;;;23.20;12.97;;;;;;;;;;5028322;28;20184;-69
2022/12/13 05:33:24;;;;;;;27.67;13.37;;;;;;;;;;5031406;28;20188;-69
2022/12/13 05:35:49;;;;;;;27.20;14.10;;;;;;;;;;5035306;28;20281;-69
2022/12/13 05:38:15;;;;;;;32.83;14.00;;;;;;;;;;5036729;28;20204;-70
2022/12/13 05:40:40;;;;;;;29.70;14.30;;;;;;;;;;5029808;28;20940;-70
2022/12/13 05:43:05;;;;;;;30.80;13.83;;;;;;;;;;5029360;28;20202;-70
2022/12/13 05:45:31;;;;;;;24.47;14.17;;;;;;;;;;5030685;28;20256;-70
2022/12/13 05:47:56;;;;;;;28.33;14.53;;;;;;;;;;5029918;28;20252;-70
2022/12/13 05:50:21;;;;;;;26.20;13.80;;;;;;;;;;5038825;28;20190;-70
2022/12/13 05:52:47;;;;;;;32.57;14.63;;;;;;;;;;5029609;28;20204;-69
2022/12/13 05:55:12;;;;;;;28.23;13.53;;;;;;;;;;5030005;28;20209;-70
2022/12/13 05:57:37;;;;;;;23.83;13.40;;;;;;;;;;5030209;28;20229;-69
2022/12/13 06:00:04;;;;;;;25.67;13.07;;;;;;;;;;5031143;28;20189;-69
2022/12/13 06:02:29;;;;;;;27.00;14.03;;;;;;;;;;5029018;28;20202;-70
2022/12/13 06:04:54;;;;;;;24.00;13.23;;;;;;;;;;5030945;28;20549;-70
2022/12/13 06:07:19;;;;;;;29.87;13.73;;;;;;;;;;5025109;28;20557;-70
2022/12/13 06:09:45;;;;;;;26.33;13.50;;;;;;;;;;5019262;28;20178;-70
2022/12/13 06:12:10;;;;;;;27.63;14.37;;;;;;;;;;5025878;28;20270;-69
2022/12/13 06:14:35;;;;;;;29.93;13.93;;;;;;;;;;5032038;28;20177;-70
2022/12/13 06:17:01;;;;;;;25.43;13.50;;;;;;;;;;5029911;28;20276;-69
2022/12/13 06:19:26;;;;;;;28.20;13.80;;;;;;;;;;5027893;28;20189;-70
2022/12/13 06:21:52;;;;;;;26.83;14.00;;;;;;;;;;5029129;28;20202;-70
2022/12/13 06:24:18;;;;;;;29.60;13.43;;;;;;;;;;5029919;28;20171;-70
2022/12/13 06:26:43;;;;;;;25.63;13.10;;;;;;;;;;5027533;28;20629;-70
2022/12/13 06:29:09;;;;;;;25.60;13.47;;;;;;;;;;5030568;28;20197;-70
2022/12/13 06:31:34;;;;;;;28.67;14.17;;;;;;;;;;5031189;28;20201;-70
2022/12/13 06:34:00;;;;;;;26.67;12.33;;;;;;;;;;5034431;28;20202;-70
2022/12/13 06:36:25;;;;;;;26.50;14.27;;;;;;;;;;5034123;28;20203;-70
2022/12/13 06:38:50;;;;;;;23.50;12.20;;;;;;;;;;5034141;28;20209;-70
2022/12/13 06:41:16;;;;;;;23.70;13.10;;;;;;;;;;5033160;28;20648;-70
2022/12/13 06:43:42;;;;;;;24.70;12.97;;;;;;;;;;5032594;28;20201;-70
2022/12/13 06:46:07;;;;;;;22.03;12.83;;;;;;;;;;5032798;28;20209;-70
2022/12/13 06:48:33;;;;;;;25.50;12.87;;;;;;;;;;5034075;28;20179;-70
2022/12/13 06:50:59;;;;;;;25.00;13.70;;;;;;;;;;5033280;28;20182;-70
2022/12/13 06:53:24;;;;;;;25.40;12.57;;;;;;;;;;5034015;28;20191;-70
2022/12/13 06:55:49;;;;;;;22.47;12.63;;;;;;;;;;5032678;28;20552;-70
2022/12/13 06:58:14;;;;;;;28.63;13.60;;;;;;;;;;5035518;28;20174;-70
2022/12/13 07:00:40;;;;;;;28.87;13.83;;;;;;;;;;5027481;28;20194;-69
2022/12/13 07:03:05;;;;;;;26.10;13.33;;;;;;;;;;5032438;28;20664;-70
2022/12/13 07:05:30;;;;;;;24.23;12.50;;;;;;;;;;5037438;28;20204;-70
2022/12/13 07:07:55;;;;;;;24.30;13.43;;;;;;;;;;5033776;28;20224;-70
2022/12/13 07:10:21;;;;;;;28.23;13.60;;;;;;;;;;5034733;28;20213;-70
2022/12/13 07:12:46;;;;;;;27.13;13.33;;;;;;;;;;5031506;28;20209;-70
2022/12/13 07:15:11;;;;;;;26.37;13.93;;;;;;;;;;5034697;28;20233;-70
2022/12/13 07:17:36;;;;;;;26.10;13.57;;;;;;;;;;5032341;28;20260;-70
2022/12/13 07:20:03;;;;;;;26.70;12.60;;;;;;;;;;5033039;28;20191;-70
2022/12/13 07:22:28;;;;;;;26.30;13.50;;;;;;;;;;5032918;28;20257;-70
2022/12/13 07:24:53;;;;;;;27.20;14.17;;;;;;;;;;5033014;28;20659;-70
2022/12/13 07:27:19;;;;;;;22.67;12.53;;;;;;;;;;5033324;28;20564;-70
2022/12/13 07:29:44;;;;;;;25.97;13.57;;;;;;;;;;5032904;28;20702;-69
2022/12/13 07:32:09;;;;;;;24.43;13.33;;;;;;;;;;5032378;28;20227;-69
2022/12/13 07:34:35;;;;;;;26.30;14.53;;;;;;;;;;5033963;28;20245;-70
2022/12/13 07:37:00;;;;;;;30.87;14.37;;;;;;;;;;5032413;28;20194;-70
2022/12/13 07:39:25;;;;;;;35.10;14.63;;;;;;;;;;5033771;28;20180;-70
2022/12/13 07:41:53;;;;;;;24.53;13.67;;;;;;;;;;5036398;28;20215;-70
2022/12/13 07:44:19;;;;;;;25.60;13.33;;;;;;;;;;5032184;28;20236;-70
2022/12/13 07:46:44;;;;;;;29.30;12.87;;;;;;;;;;5032677;28;20719;-70
2022/12/13 07:49:10;;;;;;;29.67;14.43;;;;;;;;;;5031568;28;20183;-70
2022/12/13 07:51:35;;;;;;;27.50;14.43;;;;;;;;;;5034046;28;20187;-70
2022/12/13 07:54:01;;;;;;;29.57;15.53;;;;;;;;;;5034502;28;20192;-70
2022/12/13 07:56:26;;;;;;;32.97;17.43;;;;;;;;;;5037394;28;20202;-70
2022/12/13 07:58:51;;;;;;;32.53;17.23;;;;;;;;;;5032541;28;20195;-69
2022/12/13 08:01:17;;;;;;;26.87;15.77;;;;;;;;;;5029705;28;20178;-69
2022/12/13 08:03:42;;;;;;;28.97;15.70;;;;;;;;;;5032172;28;20702;-69
2022/12/13 08:06:09;;;;;;;24.90;14.20;;;;;;;;;;5032585;28;20732;-69
2022/12/13 08:08:34;;;;;;;28.73;15.47;;;;;;;;;;5032343;28;20268;-69
2022/12/13 08:11:04;;;;;;;28.03;14.63;;;;;;;;;;5031449;28;20208;-69
2022/12/13 08:13:29;;;;;;;32.37;15.73;;;;;;;;;;5027690;28;20182;-70
2022/12/13 08:15:59;;;;;;;32.63;17.17;;;;;;;;;;5032099;28;20201;-69
2022/12/13 08:18:24;;;;;;;24.67;13.83;;;;;;;;;;5015191;28;20175;-69
2022/12/13 08:20:50;;;;;;;32.53;16.17;;;;;;;;;;5024186;28;20662;-70
2022/12/13 08:23:15;;;;;;;35.43;15.93;;;;;;;;;;5026754;28;20786;-69
2022/12/13 08:25:40;;;;;;;32.40;16.40;;;;;;;;;;5026577;28;20218;-69
2022/12/13 08:28:05;;;;;;;30.63;15.30;;;;;;;;;;5028430;28;20174;-69
2022/12/13 08:30:31;;;;;;;41.53;17.33;;;;;;;;;;5035138;28;20174;-70
2022/12/13 08:32:56;;;;;;;26.87;14.93;;;;;;;;;;5028275;28;20729;-70
2022/12/13 08:35:21;;;;;;;33.67;17.13;;;;;;;;;;5026681;28;20221;-69
2022/12/13 08:37:46;;;;;;;33.70;15.70;;;;;;;;;;5024184;28;20201;-70
2022/12/13 08:40:12;;;;;;;40.17;18.07;;;;;;;;;;5031756;28;20261;-69
2022/12/13 08:42:37;;;;;;;36.33;15.50;;;;;;;;;;5030512;28;20796;-70
2022/12/13 08:45:02;;;;;;;33.13;16.50;;;;;;;;;;5024350;28;20194;-70
2022/12/13 08:47:27;;;;;;;34.50;16.47;;;;;;;;;;5031299;28;20183;-70
2022/12/13 08:49:54;;;;;;;32.43;16.83;;;;;;;;;;5031505;28;20608;-69
2022/12/13 08:52:20;;;;;;;35.20;15.83;;;;;;;;;;5029875;28;20236;-70
2022/12/13 08:54:45;;;;;;;32.90;16.70;;;;;;;;;;5029567;28;20659;-70
2022/12/13 08:57:11;;;;;;;32.43;16.93;;;;;;;;;;5029708;28;20186;-70
2022/12/13 08:59:36;;;;;;;29.57;16.97;;;;;;;;;;5031543;28;20188;-72
2022/12/13 09:02:02;;;;;;;32.40;17.27;;;;;;;;;;5030348;28;20206;-70
2022/12/13 09:04:27;;;;;;;33.70;16.57;;;;;;;;;;5031488;28;20261;-69
2022/12/13 09:06:52;;;;;;;30.10;16.10;;;;;;;;;;5030842;28;20656;-70
2022/12/13 09:09:17;;;;;;;33.70;17.70;;;;;;;;;;5022697;28;20186;-69
2022/12/13 09:11:43;;;;;;;39.37;18.00;;;;;;;;;;5028804;28;20543;-69
2022/12/13 09:14:08;;;;;;;41.93;18.23;;;;;;;;;;5031894;28;20241;-70
2022/12/13 09:16:35;;;;;;;38.17;17.93;;;;;;;;;;5030915;28;20251;-69
2022/12/13 09:19:00;;;;;;;36.50;17.93;;;;;;;;;;5023935;28;20178;-69
2022/12/13 09:21:26;;;;;;;35.17;18.40;;;;;;;;;;5030232;28;20183;-69
2022/12/13 09:23:51;;;;;;;36.30;18.50;;;;;;;;;;5030901;28;20260;-69
2022/12/13 09:26:16;;;;;;;32.30;18.07;;;;;;;;;;5028352;23;20234;-76
2022/12/13 09:28:41;;;;;;;42.70;19.67;;;;;;;;;;5029703;28;20170;-76
2022/12/13 09:31:07;;;;;;;42.40;19.43;;;;;;;;;;5016752;28;20175;-76
2022/12/13 09:33:32;;;;;;;38.03;20.20;;;;;;;;;;5029073;28;20189;-76
2022/12/13 09:35:57;;;;;;;34.40;18.33;;;;;;;;;;5031082;28;20190;-76
2022/12/13 09:38:22;;;;;;;41.93;18.80;;;;;;;;;;5030893;28;20190;-75
2022/12/13 09:40:49;;;;;;;36.93;18.70;;;;;;;;;;5030359;28;20178;-76
2022/12/13 09:43:18;;;;;;;42.83;21.70;;;;;;;;;;5031099;28;20206;-74
2022/12/13 09:45:44;;;;;;;42.80;20.83;;;;;;;;;;5030583;28;20621;-75
2022/12/13 09:48:14;;;;;;;43.27;21.73;;;;;;;;;;5024772;28;20175;-75
2022/12/13 09:50:39;;;;;;;39.60;20.63;;;;;;;;;;5026501;28;20170;-75
2022/12/13 09:53:05;;;;;;;41.23;20.83;;;;;;;;;;5030006;28;20557;-74
2022/12/13 09:55:33;;;;;;;45.40;23.53;;;;;;;;;;5030942;28;20206;-76
2022/12/13 09:57:59;;;;;;;45.07;22.07;;;;;;;;;;5030565;28;20646;-76
2022/12/13 10:00:27;;;;;;;39.93;21.70;;;;;;;;;;5031663;28;20210;-75
2022/12/13 10:02:55;;;;;;;45.03;23.00;;;;;;;;;;5028309;28;20678;-76
2022/12/13 10:05:28;;;;;;;42.67;22.20;;;;;;;;;;5032075;28;20590;-76
2022/12/13 10:07:56;;;;;;;48.00;22.40;;;;;;;;;;5025513;28;20719;-75
2022/12/13 10:10:21;;;;;;;48.83;21.30;;;;;;;;;;5033963;28;20174;-76
2022/12/13 10:12:51;;;;;;;46.37;23.70;;;;;;;;;;5035659;28;20632;-75
2022/12/13 10:15:18;;;;;;;47.73;23.37;;;;;;;;;;5034742;28;20185;-76
2022/12/13 10:17:47;;;;;;;49.63;22.50;;;;;;;;;;5025458;28;20174;-76
2022/12/13 10:20:17;;;;;;;48.00;24.07;;;;;;;;;;5034670;28;20549;-76
2022/12/13 10:22:42;;;;;;;57.50;23.37;;;;;;;;;;5028971;28;20560;-76
2022/12/13 10:25:07;;;;;;;44.10;23.33;;;;;;;;;;5025120;28;20221;-77
2022/12/13 10:27:38;;;;;;;45.33;23.77;;;;;;;;;;5031948;28;20206;-77
2022/12/13 10:30:06;;;;;;;54.07;25.13;;;;;;;;;;5032446;28;20178;-77
2022/12/13 10:32:33;;;;;;;46.83;24.33;;;;;;;;;;5031974;28;20182;-76
2022/12/13 10:34:59;;;;;;;49.77;25.60;;;;;;;;;;5034234;28;20178;-76
2022/12/13 10:37:29;;;;;;;50.23;25.50;;;;;;;;;;5032655;28;20630;-76
2022/12/13 10:39:54;;;;;;;53.43;26.93;;;;;;;;;;5034013;28;20174;-77
2022/12/13 10:42:20;;;;;;;55.43;27.07;;;;;;;;;;5027323;28;20246;-77
2022/12/13 10:44:46;;;;;;;51.63;26.83;;;;;;;;;;5026001;28;20194;-78
2022/12/13 10:47:16;;;;;;;52.53;26.63;;;;;;;;;;5033628;28;20683;-78
2022/12/13 10:49:52;;;;;;;48.77;26.77;;;;;;;;;;5031250;28;20549;-78
2022/12/13 10:52:23;;;;;;;54.10;27.93;;;;;;;;;;5032735;28;20212;-78
2022/12/13 10:54:49;;;;;;;43.87;25.13;;;;;;;;;;5032442;28;20174;-78
2022/12/13 10:57:15;;;;;;;42.70;23.30;;;;;;;;;;5033410;28;20297;-78
2022/12/13 10:59:40;;;;;;;43.13;24.10;;;;;;;;;;5032308;28;20265;-78
2022/12/13 11:02:27;;;;;;;41.63;24.10;;;;;;;;;;5024358;28;20600;-77
2022/12/13 11:04:53;;;;;;;43.67;24.90;;;;;;;;;;5029142;28;20323;-77
2022/12/13 11:07:26;;;;;;;44.90;23.73;;;;;;;;;;5033387;28;20289;-78
2022/12/13 11:09:52;;;;;;;40.37;22.80;;;;;;;;;;5033863;28;20178;-76
2022/12/13 11:12:19;;;;;;;39.67;22.57;;;;;;;;;;5034645;28;20178;-78
2022/12/13 11:14:51;;;;;;;38.83;21.67;;;;;;;;;;5033392;28;20325;-78
2022/12/13 11:17:20;;;;;;;37.30;20.80;;;;;;;;;;5032661;28;20281;-78
2022/12/13 11:19:46;;;;;;;37.47;20.90;;;;;;;;;;5026016;28;20182;-78
2022/12/13 11:22:23;;;;;;;42.63;22.93;;;;;;;;;;5027185;28;20209;-78
2022/12/13 11:24:50;;;;;;;36.23;18.27;;;;;;;;;;5032227;28;20213;-79
2022/12/13 11:27:25;;;;;;;33.60;19.90;;;;;;;;;;5030172;28;20248;-78
2022/12/13 11:29:50;;;;;;;33.13;19.87;;;;;;;;;;5032114;28;20174;-78
2022/12/13 11:32:21;;;;;;;31.20;18.43;;;;;;;;;;5031993;28;20182;-79
2022/12/13 11:34:51;;;;;;;29.30;17.37;;;;;;;;;;5032669;28;20174;-78
2022/12/13 11:37:20;;;;;;;31.60;18.70;;;;;;;;;;5033015;28;20229;-78
2022/12/13 11:39:57;;;;;;;36.17;19.97;;;;;;;;;;5025143;28;20258;-78
2022/12/13 11:42:32;;;;;;;32.23;17.80;;;;;;;;;;5030884;28;20296;-78
2022/12/13 11:45:16;;;;;;;34.67;18.90;;;;;;;;;;5032750;28;20174;-78
2022/12/13 11:47:41;;;;;;;29.73;18.17;;;;;;;;;;5032332;28;20177;-78
2022/12/13 11:50:12;;;;;;;32.50;18.27;;;;;;;;;;5033079;28;20170;-78
2022/12/13 11:52:39;;;;;;;32.37;17.50;;;;;;;;;;5031810;28;20546;-78
2022/12/13 11:55:16;;;;;;;34.00;19.37;;;;;;;;;;5032680;28;20534;-78
2022/12/13 11:57:53;;;;;;;36.73;18.73;;;;;;;;;;5031269;28;20199;-78
2022/12/13 12:00:31;;;;;;;34.97;18.23;;;;;;;;;;5028437;28;20174;-78
2022/12/13 12:03:19;;;;;;;34.23;18.97;;;;;;;;;;5031508;28;20729;-78
2022/12/13 12:05:49;;;;;;;31.07;17.63;;;;;;;;;;5019415;28;20305;-78
2022/12/13 12:08:18;;;;;;;34.40;18.97;;;;;;;;;;5031475;28;20173;-78
2022/12/13 12:10:45;;;;;;;29.60;16.70;;;;;;;;;;5023640;28;20174;-79
2022/12/13 12:13:19;;;;;;;31.73;17.30;;;;;;;;;;5030507;28;20174;-78
2022/12/13 12:16:04;;;;;;;32.33;18.93;;;;;;;;;;5028240;28;20333;-78
2022/12/13 12:18:30;;;;;;;37.43;19.17;;;;;;;;;;5035758;28;20190;-78
2022/12/13 12:21:00;;;;;;;36.33;17.93;;;;;;;;;;5035058;28;20171;-78
2022/12/13 12:23:44;;;;;;;31.73;17.17;;;;;;;;;;5034986;28;20198;-78
2022/12/13 12:26:12;;;;;;;29.60;17.63;;;;;;;;;;5026155;28;20214;-77
2022/12/13 12:28:43;;;;;;;28.43;16.27;;;;;;;;;;5033364;28;20928;-77
2022/12/13 12:31:34;;;;;;;27.43;15.90;;;;;;;;;;5035024;28;20193;-78
2022/12/13 12:34:17;;;;;;;27.73;15.83;;;;;;;;;;5032352;28;20189;-78
2022/12/13 12:36:59;;;;;;;26.43;16.50;;;;;;;;;;5033042;28;20671;-78
2022/12/13 12:39:30;;;;;;;27.03;16.63;;;;;;;;;;5035280;28;20271;-78
2022/12/13 12:41:56;;;;;;;30.27;17.17;;;;;;;;;;5034149;28;20170;-78
2022/12/13 12:44:29;;;;;;;30.37;16.47;;;;;;;;;;5035638;28;20185;-78
2022/12/13 12:46:54;;;;;;;26.37;15.57;;;;;;;;;;5015876;28;20206;-78
2022/12/13 12:49:19;;;;;;;29.33;15.93;;;;;;;;;;5030650;28;20249;-77
2022/12/13 12:52:03;;;;;;;25.77;15.67;;;;;;;;;;5032142;28;20175;-77
2022/12/13 12:54:31;;;;;;;26.77;15.80;;;;;;;;;;5029772;28;20253;-77
2022/12/13 12:57:00;;;;;;;24.67;15.60;;;;;;;;;;5031826;28;20190;-77
2022/12/13 12:59:50;;;;;;;24.73;15.07;;;;;;;;;;5029962;28;20181;-77
2022/12/13 13:02:21;;;;;;;26.53;15.10;;;;;;;;;;5030661;28;20269;-77
2022/12/13 13:04:54;;;;;;;29.03;16.30;;;;;;;;;;5024210;28;20181;-80
2022/12/13 13:07:21;;;;;;;23.00;14.50;;;;;;;;;;5030521;28;20198;-79
2022/12/13 13:09:47;;;;;;;24.60;15.73;;;;;;;;;;5030025;28;20171;-78
2022/12/13 13:12:13;;;;;;;28.97;15.73;;;;;;;;;;5032034;28;20236;-77
2022/12/13 13:14:39;;;;;;;29.70;15.97;;;;;;;;;;5031139;28;20209;-77
2022/12/13 13:17:16;;;;;;;27.87;16.00;;;;;;;;;;5030086;28;20229;-77
2022/12/13 13:19:43;;;;;;;25.67;15.20;;;;;;;;;;5029933;28;20185;-77
2022/12/13 13:22:25;;;;;;;31.27;16.13;;;;;;;;;;5030107;28;20197;-77
2022/12/13 13:25:05;;;;;;;27.67;16.33;;;;;;;;;;5024255;28;20652;-77
2022/12/13 13:27:31;;;;;;;26.70;15.90;;;;;;;;;;5031117;28;20631;-77
2022/12/13 13:30:14;;;;;;;25.00;14.47;;;;;;;;;;5031087;28;20652;-77
2022/12/13 13:32:39;;;;;;;30.07;15.57;;;;;;;;;;5029725;28;20686;-79
2022/12/13 13:35:23;;;;;;;30.37;16.27;;;;;;;;;;5031140;28;20174;-77
2022/12/13 13:37:51;;;;;;;26.87;16.53;;;;;;;;;;5031317;28;20190;-77
2022/12/13 13:40:25;;;;;;;30.13;17.37;;;;;;;;;;5032296;28;20186;-77
2022/12/13 13:42:59;;;;;;;36.50;18.83;;;;;;;;;;5034146;28;20190;-77
2022/12/13 13:45:25;;;;;;;30.40;16.97;;;;;;;;;;5035430;28;20220;-77
2022/12/13 13:48:07;;;;;;;35.90;18.70;;;;;;;;;;5031315;28;20698;-77
2022/12/13 13:50:35;;;;;;;32.83;17.50;;;;;;;;;;5033367;28;20178;-77
2022/12/13 13:53:20;;;;;;;28.00;16.27;;;;;;;;;;5033572;28;20197;-77
2022/12/13 13:55:51;;;;;;;31.10;16.80;;;;;;;;;;5033712;28;20456;-76
2022/12/13 13:58:20;;;;;;;28.93;15.37;;;;;;;;;;5032658;28;20174;-79
2022/12/13 14:01:00;;;;;;;30.77;17.00;;;;;;;;;;5028511;28;20225;-77
2022/12/13 14:03:39;;;;;;;30.20;16.10;;;;;;;;;;5033417;28;20205;-77
2022/12/13 14:06:23;;;;;;;28.50;17.30;;;;;;;;;;5032979;28;20244;-77
2022/12/13 14:09:07;;;;;;;30.00;17.00;;;;;;;;;;5027909;28;20200;-78
2022/12/13 14:11:44;;;;;;;33.57;17.93;;;;;;;;;;5032164;28;20293;-78
2022/12/13 14:14:09;;;;;;;31.93;15.37;;;;;;;;;;5035432;28;20177;-79
2022/12/13 14:16:47;;;;;;;34.80;16.70;;;;;;;;;;5033467;28;20233;-78
2022/12/13 14:19:31;;;;;;;35.33;18.10;;;;;;;;;;5034165;28;20658;-78
2022/12/13 14:21:56;;;;;;;27.37;16.27;;;;;;;;;;5011874;28;20236;-78
2022/12/13 14:24:36;;;;;;;30.77;16.47;;;;;;;;;;5025436;28;20182;-78
2022/12/13 14:27:08;;;;;;;30.77;17.00;;;;;;;;;;5034103;28;20651;-78